sensor_id;sensor_type;location;lat;lon;timestamp;pressure;altitude;pressure_sealevel;temperature;humidity
51299;BME280;37382;45.192;9.790;2023-03-21T00:00:57;101567.09;;;10.32;100.00
51299;BME280;37382;45.192;9.790;2023-03-21T00:03:25;101565.09;;;10.35;100.00
51299;BME280;37382;45.192;9.790;2023-03-21T00:05:53;101564.88;;;9.22;100.00
51299;BME280;37382;45.192;9.790;2023-03-21T00:08:24;101574.00;;;8.80;100.00
51299;BME280;37382;45.192;9.790;2023-03-21T00:10:57;101565.16;;;8.78;100.00
51299;BME280;37382;45.192;9.790;2023-03-21T00:13:27;101581.84;;;8.49;100.00
51299;BME280;37382;45.192;9.790;2023-03-21T00:16:07;101581.69;;;8.59;100.00
51299;BME280;37382;45.192;9.790;2023-03-21T00:18:47;101589.38;;;8.37;100.00
51299;BME280;37382;45.192;9.790;2023-03-21T00:21:20;101586.06;;;8.17;100.00
51299;BME280;37382;45.192;9.790;2023-03-21T00:24:08;101582.53;;;8.25;100.00
51299;BME280;37382;45.192;9.790;2023-03-21T00:26:36;101574.16;;;8.10;100.00
51299;BME280;37382;45.192;9.790;2023-03-21T00:29:04;101570.63;;;7.83;100.00
51299;BME280;37382;45.192;9.790;2023-03-21T00:31:33;101565.53;;;7.54;100.00
51299;BME280;37382;45.192;9.790;2023-03-21T00:34:00;101569.94;;;7.37;100.00
51299;BME280;37382;45.192;9.790;2023-03-21T00:36:30;101572.81;;;7.17;100.00
51299;BME280;37382;45.192;9.790;2023-03-21T00:38:58;101575.50;;;7.35;100.00
51299;BME280;37382;45.192;9.790;2023-03-21T00:41:27;101568.78;;;7.21;100.00
51299;BME280;37382;45.192;9.790;2023-03-21T00:44:12;101574.13;;;7.31;100.00
51299;BME280;37382;45.192;9.790;2023-03-21T00:46:42;101569.56;;;7.32;100.00
51299;BME280;37382;45.192;9.790;2023-03-21T00:49:27;101576.34;;;7.54;100.00
51299;BME280;37382;45.192;9.790;2023-03-21T00:51:54;101569.19;;;7.71;100.00
51299;BME280;37382;45.192;9.790;2023-03-21T00:54:32;101563.44;;;8.00;100.00
51299;BME280;37382;45.192;9.790;2023-03-21T00:57:01;101556.66;;;8.30;100.00
51299;BME280;37382;45.192;9.790;2023-03-21T00:59:30;101543.59;;;8.68;100.00
51299;BME280;37382;45.192;9.790;2023-03-21T01:01:58;101543.56;;;8.60;100.00
51299;BME280;37382;45.192;9.790;2023-03-21T01:04:27;101555.97;;;8.28;100.00
51299;BME280;37382;45.192;9.790;2023-03-21T01:06:54;101549.59;;;8.11;100.00
51299;BME280;37382;45.192;9.790;2023-03-21T01:09:23;101543.56;;;7.91;100.00
51299;BME280;37382;45.192;9.790;2023-03-21T01:11:52;101539.00;;;8.18;100.00
51299;BME280;37382;45.192;9.790;2023-03-21T01:14:21;101530.94;;;8.00;100.00
51299;BME280;37382;45.192;9.790;2023-03-21T01:16:51;101535.50;;;7.99;100.00
51299;BME280;37382;45.192;9.790;2023-03-21T01:19:21;101525.66;;;7.90;100.00
51299;BME280;37382;45.192;9.790;2023-03-21T01:21:57;101533.97;;;8.31;100.00
51299;BME280;37382;45.192;9.790;2023-03-21T01:24:25;101533.97;;;8.31;100.00
51299;BME280;37382;45.192;9.790;2023-03-21T01:26:52;101530.28;;;8.41;100.00
51299;BME280;37382;45.192;9.790;2023-03-21T01:29:20;101518.03;;;8.87;100.00
51299;BME280;37382;45.192;9.790;2023-03-21T01:31:47;101508.19;;;8.95;100.00
51299;BME280;37382;45.192;9.790;2023-03-21T01:34:15;101507.38;;;9.11;100.00
51299;BME280;37382;45.192;9.790;2023-03-21T01:36:43;101499.56;;;9.16;100.00
51299;BME280;37382;45.192;9.790;2023-03-21T01:39:17;101501.56;;;8.81;100.00
51299;BME280;37382;45.192;9.790;2023-03-21T01:41:47;101496.34;;;8.36;100.00
51299;BME280;37382;45.192;9.790;2023-03-21T01:44:21;101501.56;;;8.22;100.00
51299;BME280;37382;45.192;9.790;2023-03-21T01:46:50;101502.03;;;7.82;100.00
51299;BME280;37382;45.192;9.790;2023-03-21T01:49:48;101506.44;;;7.75;100.00
51299;BME280;37382;45.192;9.790;2023-03-21T01:52:35;101504.06;;;7.80;100.00
51299;BME280;37382;45.192;9.790;2023-03-21T01:55:26;101501.31;;;7.72;100.00
51299;BME280;37382;45.192;9.790;2023-03-21T01:58:02;101507.91;;;7.43;100.00
51299;BME280;37382;45.192;9.790;2023-03-21T02:00:59;101502.97;;;7.39;100.00
51299;BME280;37382;45.192;9.790;2023-03-21T02:03:39;101497.41;;;7.40;100.00
51299;BME280;37382;45.192;9.790;2023-03-21T02:09:18;101489.53;;;7.11;100.00
51299;BME280;37382;45.192;9.790;2023-03-21T02:11:48;101498.00;;;6.90;100.00
51299;BME280;37382;45.192;9.790;2023-03-21T02:14:17;101493.06;;;6.39;100.00
51299;BME280;37382;45.192;9.790;2023-03-21T02:20:09;101489.13;;;6.98;100.00
51299;BME280;37382;45.192;9.790;2023-03-21T02:26:13;101483.31;;;7.89;100.00
51299;BME280;37382;45.192;9.790;2023-03-21T02:28:55;101482.22;;;8.16;100.00
51299;BME280;37382;45.192;9.790;2023-03-21T02:34:34;101470.16;;;8.45;100.00
51299;BME280;37382;45.192;9.790;2023-03-21T02:37:21;101462.50;;;8.41;100.00
51299;BME280;37382;45.192;9.790;2023-03-21T02:40:09;101462.69;;;8.55;100.00
51299;BME280;37382;45.192;9.790;2023-03-21T02:45:40;101449.50;;;8.69;100.00
51299;BME280;37382;45.192;9.790;2023-03-21T02:48:12;101445.41;;;8.65;100.00
51299;BME280;37382;45.192;9.790;2023-03-21T02:50:59;101456.88;;;8.34;100.00
51299;BME280;37382;45.192;9.790;2023-03-21T02:53:32;101452.34;;;7.92;100.00
51299;BME280;37382;45.192;9.790;2023-03-21T02:56:03;101456.41;;;7.61;100.00
51299;BME280;37382;45.192;9.790;2023-03-21T02:58:42;101463.69;;;7.35;100.00
51299;BME280;37382;45.192;9.790;2023-03-21T03:01:10;101459.25;;;7.07;100.00
51299;BME280;37382;45.192;9.790;2023-03-21T03:03:44;101463.44;;;7.02;100.00
51299;BME280;37382;45.192;9.790;2023-03-21T03:06:17;101454.63;;;6.82;100.00
51299;BME280;37382;45.192;9.790;2023-03-21T03:11:35;101457.03;;;6.67;100.00
51299;BME280;37382;45.192;9.790;2023-03-21T03:14:26;101448.16;;;6.74;100.00
51299;BME280;37382;45.192;9.790;2023-03-21T03:17:51;101456.41;;;6.73;100.00
51299;BME280;37382;45.192;9.790;2023-03-21T03:23:03;101451.88;;;6.73;100.00
51299;BME280;37382;45.192;9.790;2023-03-21T03:25:48;101454.25;;;6.58;100.00
51299;BME280;37382;45.192;9.790;2023-03-21T03:28:24;101452.50;;;6.49;100.00
51299;BME280;37382;45.192;9.790;2023-03-21T03:30:53;101444.13;;;6.61;100.00
51299;BME280;37382;45.192;9.790;2023-03-21T03:33:43;101445.84;;;6.80;100.00
51299;BME280;37382;45.192;9.790;2023-03-21T03:36:14;101448.94;;;6.49;100.00
51299;BME280;37382;45.192;9.790;2023-03-21T03:39:09;101449.78;;;6.49;100.00
51299;BME280;37382;45.192;9.790;2023-03-21T03:41:51;101447.31;;;6.74;100.00
51299;BME280;37382;45.192;9.790;2023-03-21T03:44:43;101450.31;;;6.89;100.00
51299;BME280;37382;45.192;9.790;2023-03-21T03:47:17;101458.38;;;6.63;100.00
51299;BME280;37382;45.192;9.790;2023-03-21T03:50:27;101463.28;;;6.31;100.00
51299;BME280;37382;45.192;9.790;2023-03-21T03:52:58;101469.41;;;6.69;100.00
51299;BME280;37382;45.192;9.790;2023-03-21T03:55:33;101472.56;;;6.83;100.00
51299;BME280;37382;45.192;9.790;2023-03-21T03:58:12;101472.16;;;6.41;100.00
51299;BME280;37382;45.192;9.790;2023-03-21T04:00:52;101475.81;;;6.22;100.00
51299;BME280;37382;45.192;9.790;2023-03-21T04:03:21;101472.59;;;6.19;100.00
51299;BME280;37382;45.192;9.790;2023-03-21T04:05:50;101469.59;;;6.22;100.00
51299;BME280;37382;45.192;9.790;2023-03-21T04:08:17;101478.97;;;6.46;100.00
51299;BME280;37382;45.192;9.790;2023-03-21T04:10:51;101472.09;;;6.69;100.00
51299;BME280;37382;45.192;9.790;2023-03-21T04:13:19;101480.69;;;7.01;100.00
51299;BME280;37382;45.192;9.790;2023-03-21T04:16:08;101482.22;;;7.03;100.00
51299;BME280;37382;45.192;9.790;2023-03-21T04:18:38;101469.88;;;7.27;100.00
51299;BME280;37382;45.192;9.790;2023-03-21T04:21:08;101470.03;;;7.52;100.00
51299;BME280;37382;45.192;9.790;2023-03-21T04:23:36;101464.28;;;7.20;100.00
51299;BME280;37382;45.192;9.790;2023-03-21T04:26:04;101467.94;;;7.37;100.00
51299;BME280;37382;45.192;9.790;2023-03-21T04:28:39;101460.69;;;7.46;100.00
51299;BME280;37382;45.192;9.790;2023-03-21T04:31:29;101457.75;;;7.57;100.00
51299;BME280;37382;45.192;9.790;2023-03-21T04:34:09;101455.66;;;7.51;100.00
51299;BME280;37382;45.192;9.790;2023-03-21T04:36:42;101442.50;;;7.91;100.00
51299;BME280;37382;45.192;9.790;2023-03-21T04:39:14;101452.63;;;7.89;100.00
51299;BME280;37382;45.192;9.790;2023-03-21T04:41:45;101456.31;;;7.79;100.00
51299;BME280;37382;45.192;9.790;2023-03-21T04:44:14;101462.28;;;7.83;100.00
51299;BME280;37382;45.192;9.790;2023-03-21T04:46:43;101459.97;;;7.96;100.00
51299;BME280;37382;45.192;9.790;2023-03-21T04:49:12;101461.63;;;7.89;100.00
51299;BME280;37382;45.192;9.790;2023-03-21T04:51:42;101462.59;;;7.80;100.00
51299;BME280;37382;45.192;9.790;2023-03-21T04:54:12;101465.09;;;7.73;100.00
51299;BME280;37382;45.192;9.790;2023-03-21T04:56:41;101465.19;;;7.90;100.00
51299;BME280;37382;45.192;9.790;2023-03-21T04:59:11;101465.19;;;7.90;100.00
51299;BME280;37382;45.192;9.790;2023-03-21T05:01:39;101467.44;;;7.68;100.00
51299;BME280;37382;45.192;9.790;2023-03-21T05:04:09;101460.53;;;7.47;100.00
51299;BME280;37382;45.192;9.790;2023-03-21T05:06:38;101465.81;;;7.05;100.00
51299;BME280;37382;45.192;9.790;2023-03-21T05:09:08;101467.38;;;6.89;100.00
51299;BME280;37382;45.192;9.790;2023-03-21T05:11:38;101468.09;;;6.91;100.00
51299;BME280;37382;45.192;9.790;2023-03-21T05:14:10;101470.03;;;6.81;100.00
51299;BME280;37382;45.192;9.790;2023-03-21T05:16:41;101470.34;;;6.60;100.00
51299;BME280;37382;45.192;9.790;2023-03-21T05:19:21;101475.59;;;6.62;100.00
51299;BME280;37382;45.192;9.790;2023-03-21T05:21:52;101475.97;;;6.49;100.00
51299;BME280;37382;45.192;9.790;2023-03-21T05:24:24;101474.28;;;6.66;100.00
51299;BME280;37382;45.192;9.790;2023-03-21T05:26:53;101468.09;;;6.73;100.00
51299;BME280;37382;45.192;9.790;2023-03-21T05:29:31;101472.19;;;6.59;100.00
51299;BME280;37382;45.192;9.790;2023-03-21T05:32:04;101474.19;;;6.57;100.00
51299;BME280;37382;45.192;9.790;2023-03-21T05:34:33;101474.75;;;6.61;100.00
51299;BME280;37382;45.192;9.790;2023-03-21T05:37:01;101473.41;;;6.65;100.00
51299;BME280;37382;45.192;9.790;2023-03-21T05:39:44;101474.94;;;6.50;100.00
51299;BME280;37382;45.192;9.790;2023-03-21T05:42:20;101465.94;;;6.77;100.00
51299;BME280;37382;45.192;9.790;2023-03-21T05:44:48;101478.91;;;6.73;100.00
51299;BME280;37382;45.192;9.790;2023-03-21T05:47:21;101473.50;;;6.91;100.00
51299;BME280;37382;45.192;9.790;2023-03-21T05:49:49;101476.06;;;6.93;100.00
51299;BME280;37382;45.192;9.790;2023-03-21T05:52:18;101479.38;;;6.87;100.00
51299;BME280;37382;45.192;9.790;2023-03-21T05:54:45;101482.09;;;6.87;100.00
51299;BME280;37382;45.192;9.790;2023-03-21T05:57:14;101482.31;;;6.75;100.00
51299;BME280;37382;45.192;9.790;2023-03-21T05:59:55;101482.88;;;6.79;100.00
51299;BME280;37382;45.192;9.790;2023-03-21T06:02:23;101482.41;;;6.84;100.00
51299;BME280;37382;45.192;9.790;2023-03-21T06:04:51;101483.09;;;6.86;100.00
51299;BME280;37382;45.192;9.790;2023-03-21T06:07:20;101485.31;;;7.08;100.00
51299;BME280;37382;45.192;9.790;2023-03-21T06:09:49;101479.13;;;6.98;100.00
51299;BME280;37382;45.192;9.790;2023-03-21T06:12:17;101479.53;;;6.85;100.00
51299;BME280;37382;45.192;9.790;2023-03-21T06:15:02;101484.38;;;6.82;100.00
51299;BME280;37382;45.192;9.790;2023-03-21T06:17:36;101485.38;;;6.99;100.00
51299;BME280;37382;45.192;9.790;2023-03-21T06:20:09;101490.47;;;7.02;100.00
51299;BME280;37382;45.192;9.790;2023-03-21T06:22:49;101485.69;;;7.13;100.00
51299;BME280;37382;45.192;9.790;2023-03-21T06:25:17;101489.78;;;7.18;100.00
51299;BME280;37382;45.192;9.790;2023-03-21T06:27:44;101481.72;;;7.52;100.00
51299;BME280;37382;45.192;9.790;2023-03-21T06:30:12;101487.41;;;7.67;100.00
51299;BME280;37382;45.192;9.790;2023-03-21T06:32:52;101492.97;;;7.92;100.00
51299;BME280;37382;45.192;9.790;2023-03-21T06:35:21;101492.25;;;7.81;100.00
51299;BME280;37382;45.192;9.790;2023-03-21T06:37:49;101485.44;;;8.20;100.00
51299;BME280;37382;45.192;9.790;2023-03-21T06:40:18;101479.47;;;8.51;100.00
51299;BME280;37382;45.192;9.790;2023-03-21T06:42:45;101481.06;;;8.86;100.00
51299;BME280;37382;45.192;9.790;2023-03-21T06:45:13;101481.06;;;8.95;100.00
51299;BME280;37382;45.192;9.790;2023-03-21T06:47:43;101493.94;;;8.25;100.00
51299;BME280;37382;45.192;9.790;2023-03-21T06:50:23;101492.59;;;7.87;100.00
51299;BME280;37382;45.192;9.790;2023-03-21T06:52:51;101490.53;;;7.80;100.00
51299;BME280;37382;45.192;9.790;2023-03-21T06:55:19;101488.31;;;7.76;100.00
51299;BME280;37382;45.192;9.790;2023-03-21T06:57:53;101489.19;;;7.84;100.00
51299;BME280;37382;45.192;9.790;2023-03-21T07:00:22;101488.59;;;7.99;100.00
51299;BME280;37382;45.192;9.790;2023-03-21T07:02:51;101489.81;;;8.47;100.00
51299;BME280;37382;45.192;9.790;2023-03-21T07:05:23;101490.94;;;8.36;100.00
51299;BME280;37382;45.192;9.790;2023-03-21T07:07:50;101491.22;;;8.68;100.00
51299;BME280;37382;45.192;9.790;2023-03-21T07:10:19;101490.91;;;9.04;100.00
51299;BME280;37382;45.192;9.790;2023-03-21T07:12:58;101487.19;;;9.21;100.00
51299;BME280;37382;45.192;9.790;2023-03-21T07:15:41;101502.44;;;9.22;100.00
51299;BME280;37382;45.192;9.790;2023-03-21T07:18:08;101485.28;;;9.30;100.00
51299;BME280;37382;45.192;9.790;2023-03-21T07:20:37;101491.41;;;9.32;100.00
51299;BME280;37382;45.192;9.790;2023-03-21T07:23:04;101486.34;;;9.04;100.00
51299;BME280;37382;45.192;9.790;2023-03-21T07:25:33;101487.84;;;8.90;100.00
51299;BME280;37382;45.192;9.790;2023-03-21T07:28:00;101494.63;;;9.36;100.00
51299;BME280;37382;45.192;9.790;2023-03-21T07:30:29;101493.78;;;8.94;100.00
51299;BME280;37382;45.192;9.790;2023-03-21T07:32:56;101487.53;;;9.18;100.00
51299;BME280;37382;45.192;9.790;2023-03-21T07:35:24;101490.69;;;9.63;100.00
51299;BME280;37382;45.192;9.790;2023-03-21T07:37:52;101495.25;;;9.71;100.00
51299;BME280;37382;45.192;9.790;2023-03-21T07:40:20;101489.16;;;9.69;100.00
51299;BME280;37382;45.192;9.790;2023-03-21T07:42:49;101492.84;;;9.84;100.00
51299;BME280;37382;45.192;9.790;2023-03-21T07:45:28;101487.94;;;9.71;100.00
51299;BME280;37382;45.192;9.790;2023-03-21T07:47:55;101488.28;;;9.76;100.00
51299;BME280;37382;45.192;9.790;2023-03-21T07:50:23;101496.56;;;9.83;100.00
51299;BME280;37382;45.192;9.790;2023-03-21T07:52:51;101505.88;;;9.97;100.00
51299;BME280;37382;45.192;9.790;2023-03-21T07:55:20;101494.56;;;10.25;100.00
51299;BME280;37382;45.192;9.790;2023-03-21T07:57:51;101499.72;;;10.11;100.00
51299;BME280;37382;45.192;9.790;2023-03-21T08:00:19;101498.44;;;10.39;100.00
51299;BME280;37382;45.192;9.790;2023-03-21T08:02:53;101504.72;;;9.83;100.00
51299;BME280;37382;45.192;9.790;2023-03-21T08:05:33;101502.09;;;10.06;100.00
51299;BME280;37382;45.192;9.790;2023-03-21T08:08:03;101496.31;;;10.49;100.00
51299;BME280;37382;45.192;9.790;2023-03-21T08:10:31;101503.88;;;10.93;100.00
51299;BME280;37382;45.192;9.790;2023-03-21T08:12:58;101491.13;;;10.94;100.00
51299;BME280;37382;45.192;9.790;2023-03-21T08:15:27;101497.41;;;10.94;100.00
51299;BME280;37382;45.192;9.790;2023-03-21T08:17:55;101490.66;;;11.05;100.00
51299;BME280;37382;45.192;9.790;2023-03-21T08:20:22;101494.78;;;11.24;100.00
51299;BME280;37382;45.192;9.790;2023-03-21T08:22:50;101500.00;;;11.49;100.00
51299;BME280;37382;45.192;9.790;2023-03-21T08:25:20;101496.53;;;11.55;100.00
51299;BME280;37382;45.192;9.790;2023-03-21T08:27:49;101495.25;;;11.81;100.00
51299;BME280;37382;45.192;9.790;2023-03-21T08:30:21;101498.28;;;11.48;100.00
51299;BME280;37382;45.192;9.790;2023-03-21T08:32:49;101497.66;;;11.46;100.00
51299;BME280;37382;45.192;9.790;2023-03-21T08:35:18;101497.50;;;11.77;100.00
51299;BME280;37382;45.192;9.790;2023-03-21T08:37:46;101496.53;;;11.55;100.00
51299;BME280;37382;45.192;9.790;2023-03-21T08:40:17;101493.47;;;11.88;100.00
51299;BME280;37382;45.192;9.790;2023-03-21T08:42:45;101495.00;;;12.05;100.00
51299;BME280;37382;45.192;9.790;2023-03-21T08:45:15;101493.63;;;12.46;100.00
51299;BME280;37382;45.192;9.790;2023-03-21T08:47:43;101487.66;;;12.57;100.00
51299;BME280;37382;45.192;9.790;2023-03-21T08:50:15;101490.50;;;12.49;100.00
51299;BME280;37382;45.192;9.790;2023-03-21T08:52:43;101490.66;;;12.62;100.00
51299;BME280;37382;45.192;9.790;2023-03-21T08:55:11;101488.38;;;12.88;100.00
51299;BME280;37382;45.192;9.790;2023-03-21T08:57:39;101481.72;;;13.68;100.00
51299;BME280;37382;45.192;9.790;2023-03-21T09:00:10;101484.03;;;13.65;100.00
51299;BME280;37382;45.192;9.790;2023-03-21T09:02:42;101487.44;;;13.39;100.00
51299;BME280;37382;45.192;9.790;2023-03-21T09:05:10;101492.41;;;13.57;100.00
51299;BME280;37382;45.192;9.790;2023-03-21T09:07:40;101489.59;;;13.50;100.00
51299;BME280;37382;45.192;9.790;2023-03-21T09:10:12;101483.91;;;13.45;100.00
51299;BME280;37382;45.192;9.790;2023-03-21T09:12:49;101489.31;;;13.66;100.00
51299;BME280;37382;45.192;9.790;2023-03-21T09:15:18;101478.56;;;14.00;100.00
51299;BME280;37382;45.192;9.790;2023-03-21T09:17:48;101487.41;;;14.02;100.00
51299;BME280;37382;45.192;9.790;2023-03-21T09:20:21;101491.66;;;13.76;100.00
51299;BME280;37382;45.192;9.790;2023-03-21T09:22:57;101492.03;;;14.01;100.00
51299;BME280;37382;45.192;9.790;2023-03-21T09:25:26;101494.53;;;13.96;100.00
51299;BME280;37382;45.192;9.790;2023-03-21T09:27:59;101492.44;;;13.98;100.00
51299;BME280;37382;45.192;9.790;2023-03-21T09:30:26;101487.06;;;14.12;100.00
51299;BME280;37382;45.192;9.790;2023-03-21T09:32:55;101474.66;;;14.77;100.00
51299;BME280;37382;45.192;9.790;2023-03-21T09:35:23;101482.94;;;13.94;100.00
51299;BME280;37382;45.192;9.790;2023-03-21T09:37:51;101483.72;;;14.30;100.00
51299;BME280;37382;45.192;9.790;2023-03-21T09:40:46;101483.84;;;14.50;100.00
51299;BME280;37382;45.192;9.790;2023-03-21T09:46:13;101476.25;;;14.45;100.00
51299;BME280;37382;45.192;9.790;2023-03-21T09:48:55;101475.03;;;14.13;100.00
51299;BME280;37382;45.192;9.790;2023-03-21T09:51:37;101477.22;;;14.99;100.00
51299;BME280;37382;45.192;9.790;2023-03-21T09:54:20;101477.31;;;14.57;100.00
51299;BME280;37382;45.192;9.790;2023-03-21T09:56:52;101461.00;;;15.18;100.00
51299;BME280;37382;45.192;9.790;2023-03-21T09:59:33;101467.13;;;15.26;100.00
51299;BME280;37382;45.192;9.790;2023-03-21T10:02:39;101470.28;;;15.37;100.00
51299;BME280;37382;45.192;9.790;2023-03-21T10:05:23;101473.03;;;15.23;100.00
51299;BME280;37382;45.192;9.790;2023-03-21T10:08:05;101464.38;;;15.40;100.00
51299;BME280;37382;45.192;9.790;2023-03-21T10:10:37;101468.97;;;15.53;100.00
51299;BME280;37382;45.192;9.790;2023-03-21T10:13:13;101464.16;;;15.15;100.00
51299;BME280;37382;45.192;9.790;2023-03-21T10:15:42;101472.59;;;15.26;100.00
51299;BME280;37382;45.192;9.790;2023-03-21T10:18:23;101458.66;;;15.55;100.00
51299;BME280;37382;45.192;9.790;2023-03-21T10:20:51;101455.88;;;15.68;100.00
51299;BME280;37382;45.192;9.790;2023-03-21T10:23:21;101458.28;;;16.16;100.00
51299;BME280;37382;45.192;9.790;2023-03-21T10:25:55;101453.13;;;15.88;100.00
51299;BME280;37382;45.192;9.790;2023-03-21T10:28:28;101455.88;;;15.88;100.00
51299;BME280;37382;45.192;9.790;2023-03-21T10:31:07;101457.53;;;15.76;100.00
51299;BME280;37382;45.192;9.790;2023-03-21T10:33:39;101459.72;;;16.32;100.00
51299;BME280;37382;45.192;9.790;2023-03-21T10:36:14;101451.44;;;15.87;100.00
51299;BME280;37382;45.192;9.790;2023-03-21T10:38:47;101451.44;;;15.87;100.00
51299;BME280;37382;45.192;9.790;2023-03-21T10:41:15;101451.81;;;16.49;100.00
51299;BME280;37382;45.192;9.790;2023-03-21T10:43:43;101441.28;;;17.10;100.00
51299;BME280;37382;45.192;9.790;2023-03-21T10:46:16;101440.50;;;16.32;100.00
51299;BME280;37382;45.192;9.790;2023-03-21T10:48:50;101440.97;;;16.61;100.00
51299;BME280;37382;45.192;9.790;2023-03-21T10:51:21;101434.47;;;16.81;100.00
51299;BME280;37382;45.192;9.790;2023-03-21T10:53:55;101431.94;;;16.86;100.00
51299;BME280;37382;45.192;9.790;2023-03-21T10:56:26;101425.09;;;17.46;100.00
51299;BME280;37382;45.192;9.790;2023-03-21T10:58:57;101427.41;;;16.66;100.00
51299;BME280;37382;45.192;9.790;2023-03-21T11:01:38;101426.22;;;16.56;100.00
51299;BME280;37382;45.192;9.790;2023-03-21T11:04:13;101424.97;;;17.59;100.00
51299;BME280;37382;45.192;9.790;2023-03-21T11:06:45;101415.34;;;17.87;100.00
51299;BME280;37382;45.192;9.790;2023-03-21T11:09:20;101421.97;;;18.16;100.00
51299;BME280;37382;45.192;9.790;2023-03-21T11:12:07;101418.72;;;18.38;100.00
51299;BME280;37382;45.192;9.790;2023-03-21T11:14:47;101410.50;;;18.19;100.00
51299;BME280;37382;45.192;9.790;2023-03-21T11:19:52;101412.97;;;18.39;100.00
51299;BME280;37382;45.192;9.790;2023-03-21T11:22:22;101403.28;;;18.06;100.00
51299;BME280;37382;45.192;9.790;2023-03-21T11:24:52;101398.97;;;17.73;100.00
51299;BME280;37382;45.192;9.790;2023-03-21T11:27:26;101401.50;;;17.75;100.00
51299;BME280;37382;45.192;9.790;2023-03-21T11:29:57;101386.34;;;18.21;100.00
51299;BME280;37382;45.192;9.790;2023-03-21T11:32:32;101389.22;;;18.99;100.00
51299;BME280;37382;45.192;9.790;2023-03-21T11:37:43;101379.72;;;19.18;100.00
51299;BME280;37382;45.192;9.790;2023-03-21T11:40:29;101387.28;;;18.57;100.00
51299;BME280;37382;45.192;9.790;2023-03-21T11:43:05;101384.91;;;19.27;100.00
51299;BME280;37382;45.192;9.790;2023-03-21T11:48:25;101369.34;;;19.85;100.00
51299;BME280;37382;45.192;9.790;2023-03-21T11:50:59;101378.19;;;19.99;100.00
51299;BME280;37382;45.192;9.790;2023-03-21T11:53:41;101371.81;;;20.10;100.00
51299;BME280;37382;45.192;9.790;2023-03-21T11:56:27;101359.84;;;18.93;100.00
51299;BME280;37382;45.192;9.790;2023-03-21T12:04:39;101344.94;;;20.51;94.34
51299;BME280;37382;45.192;9.790;2023-03-21T12:10:35;101342.91;;;20.01;90.24
51299;BME280;37382;45.192;9.790;2023-03-21T12:26:58;101307.69;;;20.88;87.65
51299;BME280;37382;45.192;9.790;2023-03-21T12:43:43;101269.69;;;21.00;84.38
51299;BME280;37382;45.192;9.790;2023-03-21T12:51:45;101250.53;;;20.76;76.33
51299;BME280;37382;45.192;9.790;2023-03-21T12:54:22;101245.88;;;20.99;80.45
51299;BME280;37382;45.192;9.790;2023-03-21T12:56:58;101248.91;;;20.97;76.18
51299;BME280;37382;45.192;9.790;2023-03-21T13:01:59;101233.97;;;21.87;73.64
51299;BME280;37382;45.192;9.790;2023-03-21T13:04:46;101239.78;;;21.63;72.90
51299;BME280;37382;45.192;9.790;2023-03-21T13:07:17;101237.41;;;21.99;72.07
51299;BME280;37382;45.192;9.790;2023-03-21T13:09:46;101226.47;;;22.20;70.19
51299;BME280;37382;45.192;9.790;2023-03-21T13:12:39;101216.53;;;22.56;71.45
51299;BME280;37382;45.192;9.790;2023-03-21T13:23:23;101209.47;;;21.29;68.09
51299;BME280;37382;45.192;9.790;2023-03-21T13:25:53;101208.84;;;22.26;66.24
51299;BME280;37382;45.192;9.790;2023-03-21T13:28:30;101201.81;;;22.51;64.91
51299;BME280;37382;45.192;9.790;2023-03-21T13:31:21;101200.94;;;22.88;63.08
51299;BME280;37382;45.192;9.790;2023-03-21T13:33:53;101198.53;;;22.59;63.58
51299;BME280;37382;45.192;9.790;2023-03-21T13:36:24;101193.47;;;22.46;65.64
51299;BME280;37382;45.192;9.790;2023-03-21T13:38:58;101189.16;;;23.13;63.99
51299;BME280;37382;45.192;9.790;2023-03-21T13:41:33;101189.25;;;22.81;64.95
51299;BME280;37382;45.192;9.790;2023-03-21T13:49:28;101175.34;;;22.76;63.89
51299;BME280;37382;45.192;9.790;2023-03-21T13:51:59;101164.47;;;23.22;63.38
51299;BME280;37382;45.192;9.790;2023-03-21T13:56:58;101170.16;;;22.89;62.29
51299;BME280;37382;45.192;9.790;2023-03-21T14:04:39;101146.81;;;23.79;58.45
51299;BME280;37382;45.192;9.790;2023-03-21T14:07:29;101138.50;;;24.26;56.15
51299;BME280;37382;45.192;9.790;2023-03-21T14:10:01;101133.19;;;25.20;54.51
51299;BME280;37382;45.192;9.790;2023-03-21T14:12:42;101053.72;;;26.80;51.65
51299;BME280;37382;45.192;9.790;2023-03-21T14:15:19;101041.63;;;29.27;46.11
51299;BME280;37382;45.192;9.790;2023-03-21T14:17:54;101060.88;;;30.60;41.03
51299;BME280;37382;45.192;9.790;2023-03-21T14:20:30;101100.59;;;30.13;39.10
51299;BME280;37382;45.192;9.790;2023-03-21T14:22:58;101102.25;;;29.83;40.28
51299;BME280;37382;45.192;9.790;2023-03-21T14:25:33;101120.69;;;31.53;37.35
51299;BME280;37382;45.192;9.790;2023-03-21T14:28:21;101116.88;;;29.06;39.85
51299;BME280;37382;45.192;9.790;2023-03-21T14:30:53;101112.41;;;31.30;37.06
51299;BME280;37382;45.192;9.790;2023-03-21T14:33:31;101104.00;;;31.56;37.30
51299;BME280;37382;45.192;9.790;2023-03-21T14:36:02;101093.66;;;30.91;37.28
51299;BME280;37382;45.192;9.790;2023-03-21T14:38:36;101074.88;;;29.43;37.38
51299;BME280;37382;45.192;9.790;2023-03-21T14:41:05;101063.59;;;31.87;35.22
51299;BME280;37382;45.192;9.790;2023-03-21T14:43:33;101065.47;;;31.57;34.83
51299;BME280;37382;45.192;9.790;2023-03-21T14:46:00;101066.88;;;28.63;37.59
51299;BME280;37382;45.192;9.790;2023-03-21T14:48:32;101065.13;;;31.32;35.20
51299;BME280;37382;45.192;9.790;2023-03-21T14:51:02;101071.22;;;32.34;33.97
51299;BME280;37382;45.192;9.790;2023-03-21T14:53:37;101076.59;;;32.09;34.85
51299;BME280;37382;45.192;9.790;2023-03-21T14:56:06;101093.22;;;29.49;36.55
51299;BME280;37382;45.192;9.790;2023-03-21T14:58:40;101088.81;;;29.34;37.56